createdAt,value
2017-09-09T00:00:44.556Z,1002.7
2017-09-09T00:01:43.978Z,1002.7
2017-09-09T00:02:43.521Z,1002.6
2017-09-09T00:03:42.556Z,1002.6
2017-09-09T00:04:41.979Z,1002.7
2017-09-09T00:05:41.274Z,1002.7
2017-09-09T00:06:40.556Z,1002.7
2017-09-09T00:07:10.910Z,1002.7
2017-09-09T00:07:41.269Z,1002.7
2017-09-09T00:08:39.177Z,1002.6
2017-09-09T00:09:38.356Z,1002.6
2017-09-09T00:10:37.400Z,1002.6
2017-09-09T00:11:36.821Z,1002.6
2017-09-09T00:12:36.239Z,1002.6
2017-09-09T00:13:35.406Z,1002.6
2017-09-09T00:14:34.842Z,1002.6
2017-09-09T00:15:34.136Z,1002.5
2017-09-09T00:16:33.439Z,1002.5
2017-09-09T00:18:31.610Z,1002.5
2017-09-09T00:19:31.282Z,1002.5
2017-09-09T00:20:30.577Z,1002.5
2017-09-09T00:21:29.494Z,1002.4
2017-09-09T00:23:28.180Z,1002.5
2017-09-09T00:24:27.731Z,1002.4
2017-09-09T00:25:26.523Z,1002.4
2017-09-09T00:26:26.196Z,1002.5
2017-09-09T00:27:25.241Z,1002.5
2017-09-09T00:28:24.791Z,1002.4
2017-09-09T00:29:24.093Z,1002.5
2017-09-09T00:31:22.387Z,1002.5
2017-09-09T00:32:21.690Z,1002.4
2017-09-09T00:33:21.235Z,1002.4
2017-09-09T00:35:19.409Z,1002.4
2017-09-09T00:36:18.704Z,1002.4
2017-09-09T00:37:18.119Z,1002.4
2017-09-09T00:38:17.538Z,1002.4
2017-09-09T00:39:16.571Z,1002.4
2017-09-09T00:40:15.863Z,1002.3
2017-09-09T00:41:15.028Z,1002.3
2017-09-09T00:42:14.443Z,1002.3
2017-09-09T00:43:13.738Z,1002.2
2017-09-09T00:44:13.157Z,1002.2
2017-09-09T00:45:12.319Z,1002.2
2017-09-09T00:46:11.619Z,1002.2
2017-09-09T00:47:10.908Z,1002.2
2017-09-09T00:48:09.957Z,1002.2
2017-09-09T00:49:09.377Z,1002.2
2017-09-09T00:50:08.663Z,1002.2
2017-09-09T00:51:08.084Z,1002.1
2017-09-09T00:52:07.378Z,1002.1
2017-09-09T00:53:06.419Z,1002.1
2017-09-09T00:54:05.713Z,1002
2017-09-09T00:55:04.879Z,1002
2017-09-09T00:56:04.310Z,1002
2017-09-09T00:57:03.612Z,1002
2017-09-09T00:58:03.038Z,1002
2017-09-09T00:59:02.454Z,1002
2017-09-09T01:00:01.372Z,1002
2017-09-09T01:01:00.674Z,1001.9
2017-09-09T01:02:59.347Z,1002
2017-09-09T01:03:58.518Z,1002
2017-09-09T01:04:57.680Z,1002
2017-09-09T01:05:57.345Z,1002
2017-09-09T01:06:56.258Z,1002
2017-09-09T01:07:55.551Z,1002
2017-09-09T01:08:55.226Z,1001.9
2017-09-09T01:09:54.125Z,1002
2017-09-09T01:10:53.546Z,1002
2017-09-09T01:11:52.718Z,1001.9
2017-09-09T01:12:52.263Z,1001.9
2017-09-09T01:13:51.184Z,1001.9
2017-09-09T01:14:50.476Z,1001.9
2017-09-09T01:15:50.146Z,1001.9
2017-09-09T01:16:49.058Z,1001.9
2017-09-09T01:17:48.478Z,1001.9
2017-09-09T01:19:47.032Z,1001.9
2017-09-09T01:20:46.450Z,1001.9
2017-09-09T01:21:45.496Z,1001.9
2017-09-09T01:22:44.660Z,1001.9
2017-09-09T01:23:44.082Z,1001.9
2017-09-09T01:24:43.379Z,1001.9
2017-09-09T01:26:42.057Z,1001.8
2017-09-09T01:28:40.365Z,1001.9
2017-09-09T01:29:39.659Z,1001.8
2017-09-09T01:30:38.833Z,1001.8
2017-09-09T01:31:38.252Z,1001.8
2017-09-09T01:32:37.415Z,1001.8
2017-09-09T01:33:36.713Z,1001.8
2017-09-09T01:34:36.127Z,1001.8
2017-09-09T01:35:35.294Z,1001.8
2017-09-09T01:37:33.846Z,1001.8
2017-09-09T01:38:33.516Z,1001.8
2017-09-09T01:41:31.332Z,1001.8
2017-09-09T01:42:30.252Z,1001.8
2017-09-09T01:43:29.797Z,1001.8
2017-09-09T01:44:28.970Z,1001.7
2017-09-09T01:45:28.010Z,1001.7
2017-09-09T01:46:27.306Z,1001.7
2017-09-09T01:47:26.729Z,1001.7
2017-09-09T01:48:25.766Z,1001.7
2017-09-09T01:49:25.061Z,1001.7
2017-09-09T01:50:24.733Z,1001.6
2017-09-09T01:51:24.027Z,1001.6
2017-09-09T01:52:23.193Z,1001.5
2017-09-09T01:53:22.613Z,1001.5
2017-09-09T01:54:21.533Z,1001.4
2017-09-09T01:54:51.763Z,1001.4
2017-09-09T01:55:22.365Z,1001.4
2017-09-09T01:55:52.602Z,1001.4
2017-09-09T01:56:23.219Z,1001.4
2017-09-09T01:56:53.451Z,1001.4
2017-09-09T01:57:23.689Z,1001.3
2017-09-09T01:57:54.038Z,1001.3
2017-09-09T01:59:17.873Z,1001.3
2017-09-09T02:00:17.165Z,1001.3
2017-09-09T02:01:16.334Z,1001.3
2017-09-09T02:02:15.624Z,1001.3
2017-09-09T02:03:15.044Z,1001.3
2017-09-09T02:04:14.336Z,1001.3
2017-09-09T02:05:13.888Z,1001.3
2017-09-09T02:06:12.803Z,1001.2
2017-09-09T02:07:12.097Z,1001.3
2017-09-09T02:08:11.264Z,1001.2
2017-09-09T02:09:10.810Z,1001.2
2017-09-09T02:10:10.233Z,1001.1
2017-09-09T02:11:09.145Z,1001.2
2017-09-09T02:12:08.439Z,1001.1
2017-09-09T02:13:07.736Z,1001.1
2017-09-09T02:14:07.156Z,1001
2017-09-09T02:15:06.224Z,1001
2017-09-09T02:16:05.771Z,1001
2017-09-09T03:17:51.594Z,1000.7
2017-09-09T03:18:21.959Z,1000.7
2017-09-09T03:19:19.244Z,1000.2
2017-09-09T03:20:18.546Z,1000.3
2017-09-09T03:21:17.471Z,1000.3
2017-09-09T03:22:16.765Z,1000.3
2017-09-09T03:24:15.581Z,1000.2
2017-09-09T03:25:14.763Z,1000.3
2017-09-09T03:26:14.062Z,1000.2
2017-09-09T03:28:12.745Z,1000.3
2017-09-09T03:29:12.049Z,1000.3
2017-09-09T03:30:10.970Z,1000.2
2017-09-09T03:31:10.534Z,1000.2
2017-09-09T03:32:09.708Z,1000.2
2017-09-09T03:33:09.001Z,1000.1
2017-09-09T03:34:08.051Z,1000.2
2017-09-09T03:35:07.724Z,1000.2
2017-09-09T03:36:06.782Z,1000.1
2017-09-09T03:37:05.827Z,1000.2
2017-09-09T03:38:05.256Z,1000.1
2017-09-09T03:39:04.689Z,1000.1
2017-09-09T03:40:03.986Z,1000.1
2017-09-09T03:41:03.160Z,1000.2
2017-09-09T03:42:02.468Z,1000.1
2017-09-09T03:43:01.768Z,1000.1
2017-09-09T03:45:00.096Z,1000
2017-09-09T03:45:59.659Z,1000
2017-09-09T03:46:59.077Z,1000
2017-09-09T03:47:58.251Z,999.9
2017-09-09T03:48:57.553Z,999.9
2017-09-09T03:49:56.726Z,999.9
2017-09-09T03:50:56.025Z,999.9
2017-09-09T03:51:55.070Z,999.9
2017-09-09T03:52:54.493Z,1000
2017-09-09T03:53:53.789Z,1000
2017-09-09T03:54:52.964Z,1000
2017-09-09T03:55:52.148Z,1000
2017-09-09T03:56:51.837Z,999.9
2017-09-09T03:57:50.637Z,999.9
2017-09-09T03:58:50.068Z,999.9
2017-09-09T03:59:49.362Z,999.9
2017-09-09T04:00:48.661Z,1000
2017-09-09T04:02:47.472Z,999.9
2017-09-09T04:03:46.645Z,999.9
2017-09-09T04:04:45.690Z,999.9
2017-09-09T04:05:45.114Z,999.9
2017-09-09T04:06:44.413Z,999.9
2017-09-09T04:07:43.723Z,999.9
2017-09-09T04:08:43.026Z,999.9
2017-09-09T04:09:41.952Z,999.9
2017-09-09T04:10:41.377Z,999.8
2017-09-09T04:11:40.931Z,999.8
2017-09-09T04:12:39.855Z,999.8
2017-09-09T04:13:39.522Z,999.9
2017-09-09T04:14:38.317Z,999.8
2017-09-09T04:15:37.612Z,999.8
2017-09-09T04:16:36.916Z,999.8
2017-09-09T04:17:36.214Z,999.8
2017-09-09T04:18:35.512Z,999.8
2017-09-09T04:19:34.811Z,999.8
2017-09-09T04:20:33.987Z,999.8
2017-09-09T04:21:33.416Z,999.8
2017-09-09T04:22:32.714Z,999.8
2017-09-09T04:23:32.133Z,999.9
2017-09-09T04:27:29.219Z,999.8
2017-09-09T04:28:28.646Z,999.8
2017-09-09T04:29:27.944Z,999.8
2017-09-09T04:30:26.994Z,999.8
2017-09-09T04:31:26.168Z,999.8
2017-09-09T04:32:25.343Z,999.8
2017-09-09T04:33:24.766Z,999.8
2017-09-09T04:34:24.063Z,999.8
2017-09-09T04:35:23.491Z,999.8
2017-09-09T04:36:22.665Z,999.8
2017-09-09T04:37:21.964Z,999.7
2017-09-09T04:38:21.138Z,999.8
2017-09-09T04:39:20.317Z,999.8
2017-09-09T04:40:19.739Z,999.7
2017-09-09T04:41:18.916Z,999.7
2017-09-09T04:42:18.473Z,999.7
2017-09-09T04:43:17.770Z,999.7
2017-09-09T04:44:16.945Z,999.7
2017-09-09T04:45:16.117Z,999.7
2017-09-09T04:46:15.167Z,999.6
2017-09-09T04:47:14.848Z,999.6
2017-09-09T04:48:13.893Z,999.7
2017-09-09T04:49:13.195Z,999.6
2017-09-09T04:50:12.245Z,999.6
2017-09-09T04:51:11.927Z,999.7
2017-09-09T04:52:10.967Z,999.7
2017-09-09T04:53:10.531Z,999.7
2017-09-09T04:54:09.580Z,999.6
2017-09-09T04:54:39.824Z,999.6
2017-09-09T04:55:10.432Z,999.6
2017-09-09T04:56:08.224Z,999.6
2017-09-09T04:57:07.398Z,999.6
2017-09-09T04:58:06.698Z,999.5
2017-09-09T04:59:05.996Z,999.5
2017-09-09T05:00:05.423Z,999.5
2017-09-09T05:01:04.343Z,999.5
2017-09-09T05:02:03.646Z,999.6
2017-09-09T05:03:02.821Z,999.6
2017-09-09T05:04:02.497Z,999.6
2017-09-09T05:05:01.678Z,999.6
2017-09-09T05:06:01.101Z,999.6
2017-09-09T05:07:00.400Z,999.6
2017-09-09T05:07:59.325Z,999.6
2017-09-09T05:08:58.510Z,999.7
2017-09-09T05:09:58.067Z,999.6
2017-09-09T05:10:57.244Z,999.6
2017-09-09T05:11:56.793Z,999.6
2017-09-09T05:12:55.591Z,999.6
2017-09-09T05:13:54.890Z,999.6
2017-09-09T05:14:54.568Z,999.6
2017-09-09T05:15:53.616Z,999.6
2017-09-09T05:16:52.790Z,999.6
2017-09-09T05:17:51.959Z,999.6
2017-09-09T05:18:51.641Z,999.6
2017-09-09T05:19:50.936Z,999.6
2017-09-09T05:20:50.237Z,999.6
2017-09-09T05:21:49.412Z,999.7
2017-09-09T05:22:48.577Z,999.7
2017-09-09T05:23:47.627Z,999.6
2017-09-09T05:24:47.053Z,999.6
2017-09-09T05:26:45.491Z,999.6
2017-09-09T05:27:45.170Z,999.6
2017-09-09T05:28:44.342Z,999.6
2017-09-09T05:29:43.649Z,999.6
2017-09-09T05:30:42.692Z,999.6
2017-09-09T05:31:41.892Z,999.6
2017-09-09T05:32:41.195Z,999.5
2017-09-09T05:33:40.618Z,999.5
2017-09-09T05:34:39.658Z,999.5
2017-09-09T05:35:39.332Z,999.5
2017-09-09T05:36:38.258Z,999.5
2017-09-09T05:37:37.939Z,999.5
2017-09-09T05:38:36.866Z,999.5
2017-09-09T05:40:35.553Z,999.5
2017-09-09T05:41:34.988Z,999.5
2017-09-09T05:42:33.906Z,999.5
2017-09-09T05:43:33.379Z,999.5
2017-09-09T05:44:32.805Z,999.5
2017-09-09T05:45:32.099Z,999.4
2017-09-09T05:46:31.403Z,999.4
2017-09-09T05:47:01.636Z,999.4
2017-09-09T05:47:32.245Z,999.4
2017-09-09T05:48:02.734Z,999.4
2017-09-09T05:48:33.213Z,999.4
2017-09-09T05:49:03.700Z,999.4
2017-09-09T05:50:28.285Z,999.5
2017-09-09T05:51:27.584Z,999.5
2017-09-09T05:52:26.890Z,999.5
2017-09-09T05:53:26.317Z,999.5
2017-09-09T05:54:25.238Z,999.5
2017-09-09T05:55:24.661Z,999.5
2017-09-09T05:56:23.712Z,999.5
2017-09-09T05:57:23.011Z,999.5
2017-09-09T05:59:21.705Z,999.5
2017-09-09T06:00:21.012Z,999.4
2017-09-09T06:01:20.196Z,999.4
2017-09-09T06:02:19.372Z,999.4
2017-09-09T06:03:19.054Z,999.4
2017-09-09T06:04:18.351Z,999.4
2017-09-09T06:05:17.147Z,999.4
2017-09-09T06:06:16.449Z,999.4
2017-09-09T06:07:15.745Z,999.4
2017-09-09T06:08:15.305Z,999.4
2017-09-09T06:09:14.352Z,999.4
2017-09-09T06:10:14.027Z,999.4
2017-09-09T06:11:13.077Z,999.4
2017-09-09T06:12:12.131Z,999.5
2017-09-09T06:13:11.809Z,999.5
2017-09-09T06:14:10.982Z,999.5
2017-09-09T06:15:10.039Z,999.5
2017-09-09T06:16:09.359Z,999.4
2017-09-09T06:17:08.661Z,999.4
2017-09-09T06:18:08.084Z,999.5
2017-09-09T06:19:07.261Z,999.5
2017-09-09T06:20:06.568Z,999.5
2017-09-09T06:21:05.872Z,999.5
2017-09-09T06:22:04.921Z,999.5
2017-09-09T06:23:04.220Z,999.5
2017-09-09T06:24:03.648Z,999.5
2017-09-09T06:25:02.949Z,999.5
2017-09-09T06:26:02.244Z,999.5
2017-09-09T06:27:01.429Z,999.5
2017-09-09T06:28:00.605Z,999.5
2017-09-09T06:29:00.280Z,999.5
2017-09-09T06:29:30.907Z,999.5
2017-09-09T06:30:01.271Z,999.5
2017-09-09T06:30:58.426Z,999.5
2017-09-09T06:31:58.104Z,999.5
2017-09-09T06:32:57.150Z,999.5
2017-09-09T06:33:56.447Z,999.6
2017-09-09T06:34:55.749Z,999.6
2017-09-09T06:35:55.176Z,999.5
2017-09-09T06:36:54.097Z,999.4
2017-09-09T06:37:53.393Z,999.4
2017-09-09T06:38:52.566Z,999.4
2017-09-09T06:39:52.150Z,999.4
2017-09-09T06:40:51.450Z,999.4
2017-09-09T06:41:50.635Z,999.5
2017-09-09T06:42:49.936Z,999.4
2017-09-09T06:43:48.992Z,999.4
2017-09-09T06:45:47.683Z,999.4
2017-09-09T06:46:46.986Z,999.4
2017-09-09T06:47:46.408Z,999.4
2017-09-09T06:48:45.458Z,999.4
2017-09-09T06:49:44.891Z,999.4
2017-09-09T06:50:43.939Z,999.4
2017-09-09T06:51:43.620Z,999.4
2017-09-09T06:52:42.917Z,999.4
2017-09-09T06:53:41.718Z,999.3
2017-09-09T06:54:41.269Z,999.3
2017-09-09T06:55:40.570Z,999.4
2017-09-09T06:56:39.745Z,999.3
2017-09-09T06:57:38.930Z,999.3
2017-09-09T06:58:38.356Z,999.3
2017-09-09T06:59:37.529Z,999.2
2017-09-09T07:00:37.088Z,999.3
2017-09-09T07:01:36.273Z,999.2
2017-09-09T07:02:35.574Z,999.2
2017-09-09T07:03:34.865Z,999.2
2017-09-09T07:04:33.786Z,999.1
2017-09-09T07:05:33.342Z,999.1
2017-09-09T07:07:31.657Z,999.1
2017-09-09T07:08:31.081Z,999.1
2017-09-09T07:09:30.399Z,999.1
2017-09-09T07:10:29.823Z,999
2017-09-09T07:11:29.119Z,999
2017-09-09T07:12:28.284Z,999
2017-09-09T07:13:27.340Z,999
2017-09-09T07:14:26.889Z,999.1
2017-09-09T07:15:26.196Z,999
2017-09-09T07:16:25.250Z,999
2017-09-09T07:16:55.494Z,999
2017-09-09T07:17:25.732Z,999
2017-09-09T07:18:23.770Z,999
2017-09-09T07:19:22.854Z,999
2017-09-09T07:20:22.149Z,999
2017-09-09T07:41:06.924Z,998.9
2017-09-09T07:44:04.997Z,998.9
2017-09-09T07:45:04.292Z,999
2017-09-09T07:46:03.462Z,999
2017-09-09T07:47:02.764Z,999
2017-09-09T07:48:01.684Z,999
2017-09-09T07:49:01.248Z,999
2017-09-09T07:50:00.548Z,999
2017-09-09T07:50:59.497Z,999
2017-09-09T07:52:58.182Z,999
2017-09-09T07:54:56.496Z,998.9
2017-09-09T07:55:56.170Z,998.9
2017-09-09T07:57:54.352Z,998.9
2017-09-09T07:58:53.904Z,998.9
2017-09-09T08:00:52.467Z,998.8
2017-09-09T08:02:50.902Z,998.9
2017-09-09T08:03:50.079Z,998.9
2017-09-09T08:04:49.632Z,998.9
2017-09-09T08:05:48.810Z,998.9
2017-09-09T08:06:47.854Z,998.9
2017-09-09T08:07:47.154Z,999
2017-09-09T08:08:46.327Z,999
2017-09-09T08:09:45.506Z,999.1
2017-09-09T08:11:44.447Z,999.2
2017-09-09T08:12:43.751Z,999.1
2017-09-09T08:13:42.926Z,999.1
2017-09-09T08:15:41.107Z,999.2
2017-09-09T08:16:40.407Z,999.2
2017-09-09T08:17:39.709Z,999.2
2017-09-09T08:19:38.649Z,999.2
2017-09-09T08:20:37.573Z,999.2
2017-09-09T08:23:35.391Z,999.1
2017-09-09T08:24:34.557Z,999.1
2017-09-09T08:25:34.109Z,999.1
2017-09-09T08:26:33.282Z,999.1
2017-09-09T08:27:32.577Z,999.2
2017-09-09T08:29:31.268Z,999.2
2017-09-09T08:30:30.571Z,999.2
2017-09-09T08:31:29.870Z,999.2
2017-09-09T08:32:29.043Z,999.2
2017-09-09T08:33:27.966Z,999.2
2017-09-09T08:35:26.527Z,999.2
2017-09-09T08:36:26.080Z,999.1
2017-09-09T08:45:19.473Z,999.1
2017-09-09T08:46:18.768Z,999.1
2017-09-09T08:48:17.334Z,999.2
2017-09-09T08:50:15.889Z,999.3
2017-09-09T08:51:15.071Z,999.2
2017-09-09T08:52:14.494Z,999.3
2017-09-09T08:53:13.793Z,999.3
2017-09-09T08:54:12.717Z,999.3
2017-09-09T08:55:12.021Z,999.3
2017-09-09T08:56:11.701Z,999.3
2017-09-09T08:57:10.504Z,999.3
2017-09-09T08:58:09.935Z,999.3
2017-09-09T08:59:09.362Z,999.3
2017-09-09T09:00:08.791Z,999.3
2017-09-09T09:01:07.973Z,999.3
2017-09-09T09:03:06.279Z,999.2
2017-09-09T09:04:05.828Z,999.2
2017-09-09T09:05:05.010Z,999.2
2017-09-09T09:08:02.740Z,999.2
2017-09-09T09:11:00.571Z,999.2
2017-09-09T09:11:59.746Z,999.2
2017-09-09T09:12:59.041Z,999.2
2017-09-09T09:14:57.729Z,999.1
2017-09-09T09:15:57.193Z,999.2
2017-09-09T09:16:55.993Z,999.1
2017-09-09T09:17:55.420Z,999.1
2017-09-09T09:18:54.719Z,999.2
2017-09-09T09:19:53.893Z,999.2
2017-09-09T09:20:53.573Z,999.2
2017-09-09T09:21:52.622Z,999.2
2017-09-09T09:22:51.925Z,999.2
2017-09-09T09:24:50.368Z,999.1
2017-09-09T09:26:48.931Z,999
2017-09-09T09:27:48.229Z,999
2017-09-09T09:28:47.651Z,998.9
2017-09-09T09:29:46.822Z,998.9
2017-09-09T09:30:46.124Z,998.9
2017-09-09T09:31:45.293Z,998.9
2017-09-09T09:32:44.725Z,999.1
2017-09-09T09:33:44.027Z,999.1
2017-09-09T09:34:43.077Z,999.1
2017-09-09T09:35:42.248Z,999.2
2017-09-09T09:36:41.674Z,999.1
2017-09-09T09:37:41.221Z,999.2
2017-09-09T09:38:40.151Z,999.3
2017-09-09T09:39:39.453Z,999.3
2017-09-09T09:40:38.753Z,999.3
2017-09-09T09:42:37.446Z,999.4
2017-09-09T09:43:36.624Z,999.4
2017-09-09T09:44:35.796Z,999.4
2017-09-09T09:45:06.025Z,999.4
2017-09-09T09:47:33.770Z,999.4
2017-09-09T09:48:32.943Z,999.4
2017-09-09T09:49:32.367Z,999.4
2017-09-09T09:50:31.666Z,999.3
2017-09-09T09:51:30.717Z,999.4
2017-09-09T09:52:30.398Z,999.4
2017-09-09T09:53:29.700Z,999.4
2017-09-09T09:54:28.896Z,999.4
2017-09-09T09:56:27.459Z,999.3
2017-09-09T09:58:25.763Z,999.3
2017-09-09T10:05:20.883Z,999.3
2017-09-09T10:06:20.055Z,999.3
2017-09-09T10:09:17.871Z,999.3
2017-09-09T10:10:17.302Z,999.4
2017-09-09T10:12:15.983Z,999.5
2017-09-09T10:16:12.940Z,999.5
2017-09-09T10:17:12.359Z,999.6
2017-09-09T10:18:11.790Z,999.6
2017-09-09T10:19:10.833Z,999.6
2017-09-09T10:20:10.135Z,999.6
2017-09-09T10:21:09.308Z,999.6
2017-09-09T10:22:08.735Z,999.6
2017-09-09T10:23:08.288Z,999.7
2017-09-09T10:24:07.458Z,999.8
2017-09-09T10:25:06.761Z,999.8
2017-09-09T10:26:06.062Z,999.8
2017-09-09T10:27:05.365Z,999.7
2017-09-09T10:28:04.280Z,999.6
2017-09-09T10:29:03.832Z,999.6
2017-09-09T10:30:02.882Z,999.6
2017-09-09T10:32:01.575Z,999.5
2017-09-09T10:33:01.131Z,999.6
2017-09-09T10:34:59.318Z,999.5
2017-09-09T10:36:58.007Z,999.6
2017-09-09T10:37:57.301Z,999.6
2017-09-09T10:38:27.920Z,999.6
2017-09-09T10:38:58.403Z,999.6
2017-09-09T10:42:54.108Z,999.6
2017-09-09T10:43:53.410Z,999.6
2017-09-09T10:45:51.722Z,999.5
2017-09-09T10:46:51.274Z,999.4
2017-09-09T10:48:49.453Z,999.5
2017-09-09T10:51:47.650Z,999.4
2017-09-09T10:52:46.953Z,999.4
2017-09-09T10:54:45.517Z,999.6
2017-09-09T10:55:15.750Z,999.6
2017-09-09T10:56:43.993Z,999.6
2017-09-09T10:57:43.295Z,999.6
2017-09-09T10:58:42.470Z,999.6
2017-09-09T11:00:41.419Z,999.7
2017-09-09T11:01:40.718Z,999.7
2017-09-09T11:02:40.016Z,999.6
2017-09-09T11:03:39.190Z,999.5
2017-09-09T11:04:38.626Z,999.6
2017-09-09T11:07:36.193Z,999.7
2017-09-09T11:08:35.499Z,999.7
2017-09-09T11:10:34.062Z,999.7
2017-09-09T11:11:33.486Z,999.6
2017-09-09T11:12:32.656Z,999.6
2017-09-09T11:13:32.207Z,999.7
2017-09-09T11:15:30.766Z,999.7
2017-09-09T11:16:29.975Z,999.8
2017-09-09T11:17:29.156Z,999.7
2017-09-09T11:18:28.450Z,999.8
2017-09-09T11:19:28.003Z,999.8
2017-09-09T11:20:27.297Z,999.9
2017-09-09T11:22:26.103Z,999.9
2017-09-09T11:24:24.407Z,1000
2017-09-09T11:25:23.577Z,1000
2017-09-09T11:26:23.004Z,1000
2017-09-09T11:28:21.818Z,999.9
2017-09-09T11:29:20.866Z,1000
2017-09-09T11:31:19.431Z,1000
2017-09-09T11:37:15.410Z,1000.1
2017-09-09T11:37:45.897Z,1000.1
2017-09-09T11:40:13.523Z,1000
2017-09-09T11:41:12.697Z,999.9
2017-09-09T11:42:12.246Z,1000
2017-09-09T11:43:11.295Z,1000
2017-09-09T11:44:10.593Z,1000
2017-09-09T11:45:09.932Z,1000.1
2017-09-09T11:46:09.367Z,1000
2017-09-09T11:47:08.801Z,1000
2017-09-09T11:48:08.096Z,1000
2017-09-09T11:49:07.395Z,999.9
2017-09-09T11:50:06.693Z,1000
2017-09-09T11:51:05.617Z,1000.1
2017-09-09T11:57:01.480Z,1000.3
2017-09-09T11:58:00.670Z,1000.4
2017-09-09T11:59:00.246Z,1000.5
2017-09-09T11:59:59.549Z,1000.4
2017-09-09T12:00:58.970Z,1000.4
2017-09-09T12:03:56.917Z,1000.4
2017-09-09T12:04:55.964Z,1000.4
2017-09-09T12:05:55.135Z,1000.4
2017-09-09T12:06:54.818Z,1000.4
2017-09-09T12:07:53.993Z,1000.4
2017-09-09T12:08:53.291Z,1000.4
2017-09-09T12:09:52.588Z,1000.4
2017-09-09T12:14:49.311Z,1000.3
2017-09-09T12:15:48.357Z,1000.3
2017-09-09T12:16:47.909Z,1000.3
2017-09-09T12:18:46.093Z,1000.3
2017-09-09T12:19:45.518Z,1000.3
2017-09-09T12:21:44.082Z,1000.4
2017-09-09T12:23:43.018Z,1000.5
2017-09-09T12:24:42.072Z,1000.5
2017-09-09T12:27:39.902Z,1000.5
2017-09-09T12:28:39.453Z,1000.5
2017-09-09T12:29:38.374Z,1000.6
2017-09-09T12:30:37.676Z,1000.5
2017-09-09T12:31:37.354Z,1000.5
2017-09-09T12:32:36.403Z,1000.5
2017-09-09T12:34:34.970Z,1000.6
2017-09-09T12:35:34.147Z,1000.6
2017-09-09T12:37:32.833Z,1000.6
2017-09-09T12:38:32.147Z,1000.5
2017-09-09T12:39:31.450Z,1000.5
2017-09-09T12:40:31.006Z,1000.5
2017-09-09T12:41:30.308Z,1000.5
2017-09-09T12:42:29.638Z,1000.5
2017-09-09T12:43:28.687Z,1000.5
2017-09-09T12:44:27.866Z,1000.6
2017-09-09T12:45:27.288Z,1000.5
2017-09-09T12:46:26.713Z,1000.6
2017-09-09T12:47:25.752Z,1000.5
2017-09-09T12:48:25.059Z,1000.5
2017-09-09T12:51:23.144Z,1000.4
2017-09-09T12:52:22.567Z,1000.3
2017-09-09T12:53:21.738Z,1000.3
2017-09-09T12:54:21.170Z,1000.3
2017-09-09T12:55:20.224Z,1000.4
2017-09-09T12:56:19.405Z,1000.3
2017-09-09T12:57:18.703Z,1000.3
2017-09-09T12:58:18.001Z,1000.4
2017-09-09T12:59:17.300Z,1000.4
2017-09-09T13:00:16.978Z,1000.4
2017-09-09T13:01:16.152Z,1000.5
2017-09-09T13:02:15.570Z,1000.4
2017-09-09T13:03:14.625Z,1000.5
2017-09-09T13:04:13.803Z,1000.4
2017-09-09T13:05:12.977Z,1000.5
2017-09-09T13:06:12.275Z,1000.4
2017-09-09T13:07:11.696Z,1000.4
2017-09-09T13:08:11.126Z,1000.4
2017-09-09T13:09:10.555Z,1000.4
2017-09-09T13:10:09.615Z,1000.5
2017-09-09T13:11:08.794Z,1000.4
2017-09-09T13:12:08.473Z,1000.5
2017-09-09T13:13:07.516Z,1000.5
2017-09-09T13:14:06.944Z,1000.6
2017-09-09T13:15:05.994Z,1000.6
2017-09-09T13:18:03.944Z,1000.7
2017-09-09T13:19:03.132Z,1000.6
2017-09-09T13:20:02.622Z,1000.6
2017-09-09T13:21:01.925Z,1000.7
2017-09-09T13:22:01.350Z,1000.6
2017-09-09T13:24:59.307Z,1000.7
2017-09-09T13:26:57.869Z,1000.7
2017-09-09T13:27:57.167Z,1000.7
2017-09-09T13:28:56.462Z,1000.7
2017-09-09T13:29:55.637Z,1000.7
2017-09-09T13:30:54.940Z,1000.6
2017-09-09T13:31:54.238Z,1000.6
2017-09-09T13:32:53.420Z,1000.6
2017-09-09T13:33:52.591Z,1000.6
2017-09-09T13:34:52.268Z,1000.6
2017-09-09T13:35:51.185Z,1000.6
2017-09-09T13:36:50.488Z,1000.7
2017-09-09T13:37:49.780Z,1000.6
2017-09-09T13:38:49.202Z,1000.7
2017-09-09T13:39:48.373Z,1000.7
2017-09-09T13:40:47.800Z,1000.6
2017-09-09T13:41:47.224Z,1000.7
2017-09-09T13:42:46.393Z,1000.7
2017-09-09T13:43:45.698Z,1000.7
2017-09-09T13:44:44.992Z,1000.7
2017-09-09T13:45:44.301Z,1000.7
2017-09-09T13:46:43.599Z,1000.7
2017-09-09T13:47:43.277Z,1000.7
2017-09-09T13:48:42.574Z,1000.7
2017-09-09T13:49:41.499Z,1000.7
2017-09-09T13:50:40.927Z,1000.6
2017-09-09T13:51:40.365Z,1000.7
2017-09-09T13:52:39.663Z,1000.6
2017-09-09T13:53:38.700Z,1000.6
2017-09-09T13:54:38.372Z,1000.6
2017-09-09T13:55:37.550Z,1000.6
2017-09-09T13:56:08.046Z,1000.6
2017-09-09T13:56:38.666Z,1000.6
2017-09-09T13:57:09.290Z,1000.6
2017-09-09T13:57:39.523Z,1000.6
2017-09-09T13:58:09.885Z,1000.6
2017-09-09T13:58:40.375Z,1000.6
2017-09-09T13:59:10.995Z,1000.6
2017-09-09T13:59:41.228Z,1000.6
2017-09-09T14:00:11.707Z,1000.6
2017-09-09T14:01:33.280Z,1000.5
2017-09-09T14:02:32.828Z,1000.5
2017-09-09T14:03:31.998Z,1000.6
2017-09-09T14:04:31.176Z,1000.6
2017-09-09T14:05:30.602Z,1000.6
2017-09-09T14:06:29.905Z,1000.6
2017-09-09T14:07:29.078Z,1000.5
2017-09-09T14:08:28.753Z,1000.5
2017-09-09T14:09:27.923Z,1000.5
2017-09-09T14:10:27.220Z,1000.5
2017-09-09T14:10:57.461Z,1000.5
2017-09-09T14:11:27.699Z,1000.5
2017-09-09T14:13:25.131Z,1000.4
2017-09-09T14:14:24.426Z,1000.4
2017-09-09T14:15:23.725Z,1000.4
2017-09-09T14:16:23.274Z,1000.5
2017-09-09T14:17:22.574Z,1000.4
2017-09-09T14:18:21.755Z,1000.4
2017-09-09T14:19:20.934Z,1000.4
2017-09-09T14:20:20.607Z,1000.4
2017-09-09T14:21:19.649Z,1000.4
2017-09-09T14:22:18.819Z,1000.4
2017-09-09T14:23:18.119Z,1000.4
2017-09-09T14:24:17.548Z,1000.4
2017-09-09T14:25:16.852Z,1000.5
2017-09-09T14:26:16.274Z,1000.5
2017-09-09T14:27:15.577Z,1000.5
2017-09-09T14:29:14.019Z,1000.5
2017-09-09T14:30:13.698Z,1000.5
2017-09-09T14:31:12.867Z,1000.4
2017-09-09T14:32:12.047Z,1000.5
2017-09-09T14:33:11.723Z,1000.4
2017-09-09T14:34:10.648Z,1000.4
2017-09-09T14:35:10.334Z,1000.4
2017-09-09T14:36:09.380Z,1000.4
2017-09-09T14:37:09.058Z,1000.4
2017-09-09T14:38:08.230Z,1000.4
2017-09-09T14:39:07.529Z,1000.4
2017-09-09T14:40:06.955Z,1000.5
2017-09-09T14:41:06.005Z,1000.5
2017-09-09T14:43:04.567Z,1000.7
2017-09-09T14:44:04.122Z,1000.6
2017-09-09T14:46:02.680Z,1000.6
2017-09-09T14:47:02.114Z,1000.7
2017-09-09T14:48:01.290Z,1000.7
2017-09-09T14:49:00.589Z,1000.7
2017-09-09T14:49:59.759Z,1000.7
2017-09-09T14:50:59.441Z,1000.7
2017-09-09T14:51:29.800Z,1000.7
2017-09-09T14:52:00.167Z,1000.7
2017-09-09T14:52:57.961Z,1000.7
2017-09-09T14:53:57.513Z,1000.8
2017-09-09T14:54:56.446Z,1000.8
2017-09-09T14:56:55.013Z,1000.8
2017-09-09T14:57:54.818Z,1000.8
2017-09-09T14:58:53.742Z,1001
2017-09-09T14:59:53.040Z,1001
2017-09-09T15:00:52.785Z,1001
2017-09-09T15:01:51.959Z,1001
2017-09-09T15:02:51.142Z,1000.8
2017-09-09T15:03:50.442Z,1000.8
2017-09-09T15:04:49.869Z,1001
2017-09-09T15:05:49.306Z,1001
2017-09-09T15:06:48.608Z,1001
2017-09-09T15:08:47.042Z,1001
2017-09-09T15:09:46.340Z,1001
2017-09-09T15:10:45.645Z,1001.1
2017-09-09T15:11:45.332Z,1001
2017-09-09T15:12:44.640Z,1001.1
2017-09-09T15:13:43.564Z,1001.1
2017-09-09T15:14:43.241Z,1001.1
2017-09-09T15:15:42.540Z,1001
2017-09-09T15:16:41.839Z,1001.1
2017-09-09T15:17:40.761Z,1001
2017-09-09T15:18:40.314Z,1001
2017-09-09T15:19:39.612Z,1001
2017-09-09T15:20:39.162Z,1001.1
2017-09-09T15:21:38.207Z,1001
2017-09-09T15:22:37.765Z,1001
2017-09-09T15:23:37.065Z,1001
2017-09-09T15:24:36.125Z,1001
2017-09-09T15:25:35.806Z,1001
2017-09-09T15:26:34.852Z,1001
2017-09-09T15:27:34.286Z,1000.8
2017-09-09T15:28:33.452Z,1001
2017-09-09T15:29:32.634Z,1001
2017-09-09T15:30:32.436Z,1000.8
2017-09-09T15:31:31.616Z,1000.8
2017-09-09T15:32:30.793Z,1000.8
2017-09-09T15:33:30.216Z,1000.8
2017-09-09T15:34:29.275Z,1000.8
2017-09-09T15:35:28.820Z,1000.7
2017-09-09T15:36:28.126Z,1000.8
2017-09-09T15:37:27.302Z,1000.8
2017-09-09T15:38:26.596Z,1000.8
2017-09-09T15:39:25.899Z,1001
2017-09-09T15:40:25.198Z,1000.8
2017-09-09T15:41:24.498Z,1001
2017-09-09T15:42:23.794Z,1000.8
2017-09-09T15:43:23.600Z,1000.8
2017-09-09T15:45:22.159Z,1001
2017-09-09T15:46:21.209Z,1001.1
2017-09-09T15:47:20.766Z,1001.1
2017-09-09T15:47:51.256Z,1001.1